createdAt,value
2017-07-26T00:01:24.771Z,4.83
2017-07-26T00:03:51.138Z,5.33
2017-07-26T00:06:18.145Z,4.03
2017-07-26T00:08:44.404Z,4.13
2017-07-26T00:11:10.706Z,4.33
2017-07-26T00:13:36.946Z,5.23
2017-07-26T00:16:03.193Z,4.87
2017-07-26T00:18:29.461Z,4.83
2017-07-26T00:20:55.742Z,4.80
2017-07-26T00:23:22.718Z,5.10
2017-07-26T00:25:48.966Z,4.60
2017-07-26T00:28:15.211Z,4.77
2017-07-26T00:30:41.443Z,5.33
2017-07-26T00:35:39.759Z,8.73
2017-07-26T00:38:06.047Z,8.10
2017-07-26T00:40:39.187Z,5.83
2017-07-26T00:43:05.439Z,6.10
2017-07-26T00:45:31.711Z,6.93
2017-07-26T00:47:57.978Z,5.23
2017-07-26T00:50:24.211Z,8.10
2017-07-26T00:52:50.462Z,6.43
2017-07-26T00:55:16.851Z,6.57
2017-07-26T00:57:43.088Z,6.13
2017-07-26T01:00:11.482Z,6.27
2017-07-26T01:02:37.746Z,6.43
2017-07-26T01:05:04.035Z,6.93
2017-07-26T01:07:30.312Z,7.23
2017-07-26T01:09:56.575Z,7.40
2017-07-26T01:12:23.583Z,7.83
2017-07-26T01:14:49.837Z,7.20
2017-07-26T01:17:16.910Z,6.60
2017-07-26T01:19:43.175Z,9.70
2017-07-26T01:22:09.438Z,8.63
2017-07-26T01:24:35.708Z,7.80
2017-07-26T01:27:01.963Z,8.10
2017-07-26T01:29:28.956Z,10.30
2017-07-26T01:31:55.251Z,8.07
2017-07-26T01:34:21.517Z,9.60
2017-07-26T01:36:47.765Z,10.00
2017-07-26T01:39:14.588Z,9.20
2017-07-26T01:41:40.855Z,12.87
2017-07-26T01:44:07.095Z,8.90
2017-07-26T01:46:33.358Z,8.97
2017-07-26T01:48:59.612Z,11.53
2017-07-26T01:51:25.889Z,11.40
2017-07-26T01:53:52.192Z,8.43
2017-07-26T01:56:18.445Z,8.40
2017-07-26T01:58:44.670Z,9.80
2017-07-26T02:01:12.750Z,10.33
2017-07-26T02:03:39.000Z,8.93
2017-07-26T02:06:05.311Z,7.67
2017-07-26T02:08:31.682Z,8.63
2017-07-26T02:10:57.914Z,10.03
2017-07-26T02:13:24.155Z,13.40
2017-07-26T02:15:50.424Z,7.73
2017-07-26T02:18:17.405Z,9.10
2017-07-26T02:20:43.647Z,13.50
2017-07-26T02:23:09.946Z,7.70
2017-07-26T02:25:36.166Z,7.50
2017-07-26T02:28:02.408Z,8.67
2017-07-26T02:30:28.694Z,8.10
2017-07-26T02:32:54.944Z,7.87
2017-07-26T02:35:21.184Z,8.13
2017-07-26T02:37:47.438Z,6.70
2017-07-26T02:40:14.483Z,10.60
2017-07-26T02:42:40.720Z,8.00
2017-07-26T02:45:07.046Z,7.40
2017-07-26T02:47:33.269Z,7.60
2017-07-26T02:49:59.543Z,6.97
2017-07-26T02:52:26.649Z,6.37
2017-07-26T02:54:52.907Z,12.90
2017-07-26T02:57:19.146Z,7.57
2017-07-26T02:59:46.259Z,6.73
2017-07-26T03:02:13.681Z,5.27
2017-07-26T03:04:39.922Z,7.13
2017-07-26T03:07:07.934Z,6.73
2017-07-26T03:09:34.238Z,7.83
2017-07-26T03:12:00.476Z,9.47
2017-07-26T03:14:26.723Z,8.20
2017-07-26T03:16:52.983Z,6.90
2017-07-26T03:19:26.326Z,8.30
2017-07-26T03:21:52.604Z,9.23
2017-07-26T03:24:18.859Z,17.20
2017-07-26T03:26:45.894Z,12.20
2017-07-26T03:29:12.172Z,17.83
2017-07-26T03:31:38.432Z,16.83
2017-07-26T03:34:07.103Z,13.07
2017-07-26T03:36:33.350Z,12.10
2017-07-26T03:38:59.632Z,14.20
2017-07-26T03:41:27.696Z,19.70
2017-07-26T03:43:53.933Z,14.47
2017-07-26T03:46:20.166Z,17.80
2017-07-26T03:48:47.535Z,16.30
2017-07-26T03:51:13.794Z,16.23
2017-07-26T03:53:40.044Z,15.20
2017-07-26T03:56:06.290Z,18.60
2017-07-26T03:58:33.306Z,21.97
2017-07-26T04:00:59.547Z,19.80
2017-07-26T04:03:26.904Z,18.60
2017-07-26T04:05:53.141Z,20.93
2017-07-26T04:08:19.435Z,23.00
2017-07-26T04:10:48.148Z,20.63
2017-07-26T04:13:14.385Z,23.50
2017-07-26T04:15:40.631Z,19.77
2017-07-26T04:18:06.950Z,23.83
2017-07-26T04:20:33.187Z,20.50
2017-07-26T04:22:59.436Z,29.67
2017-07-26T04:25:25.719Z,23.13
2017-07-26T04:27:51.966Z,21.73
2017-07-26T04:30:18.950Z,25.30
2017-07-26T04:32:46.067Z,27.90
2017-07-26T04:35:12.299Z,27.73
2017-07-26T04:37:38.538Z,26.73
2017-07-26T04:40:05.546Z,24.17
2017-07-26T04:42:31.772Z,27.13
2017-07-26T04:44:57.997Z,28.23
2017-07-26T04:47:24.375Z,20.70
2017-07-26T04:49:50.635Z,25.33
2017-07-26T04:52:17.626Z,27.10
2017-07-26T04:54:44.710Z,31.83
2017-07-26T04:57:10.930Z,25.50
2017-07-26T04:59:37.199Z,27.50
2017-07-26T05:02:03.467Z,31.80
2017-07-26T05:04:30.430Z,22.93
2017-07-26T05:06:56.691Z,25.07
2017-07-26T05:09:22.970Z,26.03
2017-07-26T05:11:49.962Z,25.87
2017-07-26T05:14:16.195Z,26.73
2017-07-26T05:16:42.505Z,29.90
2017-07-26T05:19:09.506Z,35.60
2017-07-26T05:21:35.758Z,28.07
2017-07-26T05:24:09.014Z,32.27
2017-07-26T05:26:35.259Z,28.70
2017-07-26T05:29:01.504Z,35.40
2017-07-26T05:31:27.760Z,30.67
2017-07-26T05:33:54.762Z,27.27
2017-07-26T05:36:21.056Z,30.10
2017-07-26T05:38:48.650Z,27.20
2017-07-26T05:41:15.610Z,30.07
2017-07-26T05:43:41.910Z,25.23
2017-07-26T05:46:08.257Z,24.03
2017-07-26T05:48:34.518Z,31.70
2017-07-26T05:51:00.815Z,25.50
2017-07-26T05:53:27.818Z,28.20
2017-07-26T05:55:54.053Z,22.73
2017-07-26T05:58:20.326Z,25.07
2017-07-26T06:00:46.914Z,28.80
2017-07-26T06:03:13.202Z,30.13
2017-07-26T06:05:50.943Z,31.93
2017-07-26T06:08:17.190Z,36.90
2017-07-26T06:10:43.435Z,32.20
2017-07-26T06:13:09.698Z,35.93
2017-07-26T06:15:35.949Z,33.33
2017-07-26T06:18:02.177Z,45.83
2017-07-26T06:20:28.487Z,39.90
2017-07-26T06:22:54.755Z,37.90
2017-07-26T06:25:21.756Z,33.70
2017-07-26T06:27:48.009Z,29.23
2017-07-26T06:30:14.243Z,36.83
2017-07-26T06:32:40.497Z,34.03
2017-07-26T06:35:06.780Z,35.70
2017-07-26T06:37:33.747Z,36.37
2017-07-26T06:40:00.018Z,28.57
2017-07-26T06:42:34.057Z,27.90
2017-07-26T06:45:01.053Z,27.30
2017-07-26T06:47:27.303Z,29.80
2017-07-26T06:49:53.565Z,33.53
2017-07-26T06:52:19.793Z,31.97
2017-07-26T06:54:46.027Z,35.10
2017-07-26T06:57:13.054Z,36.40
2017-07-26T06:59:39.379Z,32.87
2017-07-26T07:02:05.632Z,32.87
2017-07-26T07:04:32.442Z,38.07
2017-07-26T07:06:59.540Z,32.60
2017-07-26T07:09:25.823Z,36.97
2017-07-26T07:11:52.917Z,35.03
2017-07-26T07:14:19.147Z,41.40
2017-07-26T07:16:45.398Z,37.97
2017-07-26T07:19:11.643Z,35.53
2017-07-26T07:21:37.872Z,31.60
2017-07-26T07:24:04.141Z,32.07
2017-07-26T07:26:31.516Z,27.63
2017-07-26T07:28:58.506Z,31.80
2017-07-26T07:31:24.755Z,25.37
2017-07-26T07:33:51.078Z,37.00
2017-07-26T07:36:17.318Z,32.30
2017-07-26T07:38:43.566Z,28.63
2017-07-26T07:41:09.847Z,30.80
2017-07-26T07:43:36.124Z,28.97
2017-07-26T07:46:02.366Z,31.23
2017-07-26T07:48:34.690Z,25.23
2017-07-26T07:51:01.675Z,28.87
2017-07-26T07:53:27.928Z,27.63
2017-07-26T07:55:54.219Z,25.70
2017-07-26T07:58:20.465Z,33.73
2017-07-26T08:00:47.429Z,34.60
2017-07-26T08:03:14.150Z,28.30
2017-07-26T08:05:40.399Z,28.10
2017-07-26T08:08:08.283Z,25.67
2017-07-26T08:10:34.571Z,25.23
2017-07-26T08:13:01.542Z,19.83
2017-07-26T08:15:27.837Z,22.23
2017-07-26T08:17:54.119Z,30.73
2017-07-26T08:20:20.379Z,31.93
2017-07-26T08:22:46.637Z,21.50
2017-07-26T08:25:13.683Z,24.57
2017-07-26T08:27:39.950Z,23.90
2017-07-26T08:30:06.177Z,20.33
2017-07-26T08:32:32.622Z,16.70
2017-07-26T08:34:58.846Z,21.87
2017-07-26T08:37:26.306Z,15.30
2017-07-26T08:39:52.586Z,25.63
2017-07-26T08:42:18.855Z,18.50
2017-07-26T08:44:45.103Z,26.53
2017-07-26T08:47:11.470Z,25.57
2017-07-26T08:49:38.530Z,19.10
2017-07-26T08:52:04.811Z,16.50
2017-07-26T08:57:04.016Z,14.90
2017-07-26T08:59:30.271Z,17.73
2017-07-26T09:02:03.854Z,18.13
2017-07-26T09:04:30.090Z,16.37
2017-07-26T09:06:56.321Z,21.93
2017-07-26T09:09:33.195Z,16.63
2017-07-26T09:11:59.455Z,23.33
2017-07-26T09:14:25.713Z,15.20
2017-07-26T09:16:52.299Z,14.60
2017-07-26T09:19:18.604Z,15.50
2017-07-26T09:21:44.999Z,18.47
2017-07-26T09:24:11.309Z,14.97
2017-07-26T09:26:38.275Z,16.53
2017-07-26T09:29:11.387Z,17.43
2017-07-26T09:31:37.735Z,12.67
2017-07-26T09:34:03.974Z,14.57
2017-07-26T09:36:30.673Z,17.20
2017-07-26T09:38:56.942Z,14.00
2017-07-26T09:41:23.180Z,13.03
2017-07-26T09:43:49.456Z,10.83
2017-07-26T09:46:16.425Z,18.53
2017-07-26T09:48:42.660Z,13.93
2017-07-26T09:51:08.943Z,10.87
2017-07-26T09:53:35.492Z,9.60
2017-07-26T09:56:01.733Z,13.57
2017-07-26T09:58:28.515Z,10.10
2017-07-26T10:00:54.775Z,10.90
2017-07-26T10:03:22.469Z,10.13
2017-07-26T10:05:48.737Z,9.17
2017-07-26T10:08:15.726Z,8.90
2017-07-26T10:10:43.072Z,14.93
2017-07-26T10:13:09.334Z,11.80
2017-07-26T10:15:35.572Z,12.37
2017-07-26T10:18:01.839Z,12.43
2017-07-26T10:20:28.148Z,8.13
2017-07-26T10:22:54.406Z,6.80
2017-07-26T10:25:21.410Z,6.70
2017-07-26T10:27:47.670Z,7.03
2017-07-26T10:30:13.911Z,8.27
2017-07-26T10:32:40.153Z,7.53
2017-07-26T10:35:06.619Z,7.83
2017-07-26T10:37:32.922Z,8.07
2017-07-26T10:39:59.297Z,10.37
2017-07-26T10:42:26.189Z,16.80
2017-07-26T10:44:52.527Z,6.40
2017-07-26T10:47:18.859Z,7.93
2017-07-26T10:49:45.136Z,5.37
2017-07-26T10:52:11.490Z,8.50
2017-07-26T10:54:38.483Z,5.10
2017-07-26T10:57:04.730Z,5.43
2017-07-26T10:59:31.885Z,6.27
2017-07-26T11:01:58.209Z,5.27
2017-07-26T11:04:24.958Z,5.97
2017-07-26T11:06:51.278Z,6.50
2017-07-26T11:09:17.633Z,6.00
2017-07-26T11:11:45.098Z,6.00
2017-07-26T11:14:11.411Z,5.37
2017-07-26T11:16:37.694Z,11.10
2017-07-26T11:19:04.881Z,6.63
2017-07-26T11:21:31.198Z,7.20
2017-07-26T11:23:58.191Z,5.50
2017-07-26T11:26:24.498Z,6.00
2017-07-26T11:28:51.482Z,8.40
2017-07-26T11:31:17.840Z,4.90
2017-07-26T11:33:44.156Z,5.63
2017-07-26T11:36:10.509Z,5.87
2017-07-26T11:38:36.791Z,5.40
2017-07-26T11:41:03.858Z,6.43
2017-07-26T11:43:30.146Z,5.83
2017-07-26T11:45:56.397Z,5.07
2017-07-26T11:48:23.365Z,6.00
2017-07-26T11:50:50.501Z,4.90
2017-07-26T11:53:16.958Z,7.20
2017-07-26T11:55:43.210Z,6.60
2017-07-26T11:58:10.210Z,5.80
2017-07-26T12:00:36.497Z,6.23
2017-07-26T12:03:03.613Z,8.43
2017-07-26T12:05:29.850Z,5.20
2017-07-26T12:07:56.875Z,6.03
2017-07-26T12:10:23.894Z,4.80
2017-07-26T12:12:51.370Z,6.03
2017-07-26T12:15:17.631Z,6.63
2017-07-26T12:17:43.911Z,5.27
2017-07-26T12:20:10.231Z,6.10
2017-07-26T12:22:36.495Z,5.50
2017-07-26T12:25:02.827Z,6.17
2017-07-26T12:27:29.207Z,5.47
2017-07-26T12:29:55.480Z,12.93
2017-07-26T12:32:22.387Z,7.00
2017-07-26T12:34:50.402Z,9.90
2017-07-26T12:37:17.422Z,8.40
2017-07-26T12:39:44.732Z,10.13
2017-07-26T12:42:11.074Z,8.50
2017-07-26T12:44:37.329Z,7.27
2017-07-26T12:47:03.701Z,11.20
2017-07-26T12:49:30.983Z,7.27
2017-07-26T12:51:57.291Z,6.60
2017-07-26T12:54:24.391Z,6.40
2017-07-26T12:56:50.688Z,7.53
2017-07-26T12:59:17.353Z,11.40
2017-07-26T13:01:44.465Z,7.20
2017-07-26T13:04:10.820Z,7.93
2017-07-26T13:06:37.107Z,6.47
2017-07-26T13:09:05.234Z,6.60
2017-07-26T13:11:31.585Z,5.73
2017-07-26T13:13:59.618Z,9.00
2017-07-26T13:16:26.082Z,6.57
2017-07-26T13:18:52.435Z,7.10
2017-07-26T13:21:19.768Z,7.10
2017-07-26T13:23:46.121Z,6.50
2017-07-26T13:26:12.525Z,7.30
2017-07-26T13:28:38.850Z,8.00
2017-07-26T13:31:06.673Z,6.90
2017-07-26T13:33:32.967Z,7.47
2017-07-26T13:35:59.233Z,10.00
2017-07-26T13:38:26.050Z,6.53
2017-07-26T13:40:52.327Z,7.57
2017-07-26T13:43:18.611Z,6.17
2017-07-26T13:45:44.950Z,7.30
2017-07-26T13:48:11.673Z,6.00
2017-07-26T13:50:38.088Z,6.87
2017-07-26T13:53:05.582Z,16.40
2017-07-26T13:55:32.691Z,9.70
2017-07-26T13:57:58.940Z,7.80
2017-07-26T14:00:26.046Z,8.07
2017-07-26T14:02:52.421Z,7.20
2017-07-26T14:05:18.764Z,5.47
2017-07-26T14:07:45.102Z,5.90
2017-07-26T14:10:11.398Z,6.87
2017-07-26T14:12:38.448Z,5.77
2017-07-26T14:15:15.334Z,9.17
2017-07-26T14:17:41.583Z,6.27
2017-07-26T14:20:07.847Z,6.23
2017-07-26T14:22:35.267Z,6.30
2017-07-26T14:25:01.535Z,5.30
2017-07-26T14:27:27.788Z,6.03
2017-07-26T14:29:54.061Z,5.80
2017-07-26T14:32:20.394Z,5.03
2017-07-26T14:34:46.622Z,5.33
2017-07-26T14:37:12.857Z,6.30
2017-07-26T14:39:39.884Z,4.97
2017-07-26T14:42:06.135Z,5.83
2017-07-26T14:44:32.878Z,5.10
2017-07-26T14:46:59.110Z,6.57
2017-07-26T14:49:26.105Z,7.40
2017-07-26T14:51:52.381Z,5.93
2017-07-26T14:54:18.618Z,5.87
2017-07-26T14:56:44.852Z,5.90
2017-07-26T14:59:11.123Z,5.80
2017-07-26T15:01:38.149Z,5.33
2017-07-26T15:04:04.446Z,7.60
2017-07-26T15:06:31.581Z,6.83
2017-07-26T15:08:57.809Z,5.40
2017-07-26T15:11:24.098Z,7.07
2017-07-26T15:13:51.130Z,5.77
2017-07-26T15:16:18.556Z,6.30
2017-07-26T15:18:44.814Z,5.90
2017-07-26T15:21:11.067Z,5.87
2017-07-26T15:23:37.352Z,5.13
2017-07-26T15:26:04.394Z,6.63
2017-07-26T15:28:31.451Z,7.80
2017-07-26T15:31:05.341Z,12.13
2017-07-26T15:33:31.607Z,8.70
2017-07-26T15:35:58.586Z,8.40
2017-07-26T15:38:24.818Z,11.10
2017-07-26T15:40:51.066Z,12.73
2017-07-26T15:43:17.338Z,9.80
2017-07-26T15:45:43.602Z,9.03
2017-07-26T15:48:10.882Z,11.33
2017-07-26T15:50:37.131Z,9.73
2017-07-26T15:53:03.371Z,15.50
2017-07-26T15:55:29.631Z,10.80
2017-07-26T15:57:56.675Z,14.40
2017-07-26T16:00:22.918Z,10.30
2017-07-26T16:02:49.169Z,19.60
2017-07-26T16:05:15.463Z,12.63
2017-07-26T16:07:41.704Z,13.00
2017-07-26T16:10:08.511Z,11.90
2017-07-26T16:12:34.759Z,12.50
2017-07-26T16:15:01.037Z,14.40
2017-07-26T16:17:27.435Z,13.40
2017-07-26T16:19:53.676Z,17.93
2017-07-26T16:22:19.902Z,18.40
2017-07-26T16:24:46.155Z,18.53
2017-07-26T16:27:12.381Z,19.60
2017-07-26T16:29:38.661Z,18.70
2017-07-26T16:32:05.710Z,19.97
2017-07-26T16:34:32.052Z,18.20
2017-07-26T16:36:58.303Z,16.30
2017-07-26T16:39:25.413Z,16.70
2017-07-26T16:41:51.642Z,13.10
2017-07-26T16:44:17.900Z,11.30
2017-07-26T16:46:44.945Z,11.37
2017-07-26T16:49:11.219Z,14.33
2017-07-26T16:51:37.492Z,15.00
2017-07-26T16:54:03.827Z,14.87
2017-07-26T16:56:30.118Z,14.10
2017-07-26T16:58:57.104Z,11.80
2017-07-26T17:01:23.415Z,11.57
2017-07-26T17:03:49.654Z,12.13
2017-07-26T17:06:16.666Z,11.07
2017-07-26T17:08:42.919Z,13.70
2017-07-26T17:11:09.158Z,10.90
2017-07-26T17:13:35.384Z,12.50
2017-07-26T17:16:02.520Z,12.33
2017-07-26T17:18:29.428Z,14.07
2017-07-26T17:20:55.721Z,11.83
2017-07-26T17:23:21.959Z,11.47
2017-07-26T17:25:48.187Z,10.50
2017-07-26T17:28:14.455Z,22.73
2017-07-26T17:30:41.479Z,10.63
2017-07-26T17:33:07.731Z,12.03
2017-07-26T17:35:33.963Z,10.03
2017-07-26T17:38:00.239Z,12.00
2017-07-26T17:40:26.495Z,9.60
2017-07-26T17:42:52.740Z,11.73
2017-07-26T17:45:19.139Z,10.10
2017-07-26T17:47:46.130Z,11.53
2017-07-26T17:50:12.389Z,10.50
2017-07-26T17:52:39.403Z,12.37
2017-07-26T17:55:05.622Z,11.30
2017-07-26T17:57:31.890Z,21.07
2017-07-26T17:59:58.750Z,12.37
2017-07-26T18:02:25.771Z,11.53
2017-07-26T18:04:51.999Z,11.33
2017-07-26T18:07:18.278Z,14.13
2017-07-26T18:09:44.525Z,13.67
2017-07-26T18:12:10.822Z,14.77
2017-07-26T18:14:37.073Z,11.57
2017-07-26T18:17:03.342Z,16.33
2017-07-26T18:19:44.031Z,12.90
2017-07-26T18:22:10.455Z,11.53
2017-07-26T18:24:37.467Z,9.80
2017-07-26T18:27:05.294Z,9.70
2017-07-26T18:29:31.535Z,15.03
2017-07-26T18:31:57.784Z,9.70
2017-07-26T18:34:24.900Z,10.80
2017-07-26T18:36:51.870Z,13.27
2017-07-26T18:39:18.162Z,12.93
2017-07-26T18:41:45.241Z,16.17
2017-07-26T18:44:12.283Z,11.90
2017-07-26T18:46:39.263Z,16.60
2017-07-26T18:49:05.530Z,12.40
2017-07-26T18:51:31.774Z,14.17
2017-07-26T18:53:58.032Z,20.33
2017-07-26T18:56:25.043Z,20.20
2017-07-26T18:58:51.287Z,29.87
2017-07-26T19:01:17.551Z,12.83
2017-07-26T19:03:43.838Z,9.63
2017-07-26T19:06:10.095Z,13.10
2017-07-26T19:08:36.366Z,10.50
2017-07-26T19:11:02.674Z,14.27
2017-07-26T19:13:28.940Z,15.10
2017-07-26T19:15:55.211Z,16.00
2017-07-26T19:18:21.627Z,14.97
2017-07-26T19:20:47.954Z,14.80
2017-07-26T19:23:14.355Z,20.50
2017-07-26T19:25:40.725Z,10.30
2017-07-26T19:28:07.711Z,12.20
2017-07-26T19:30:33.958Z,12.77
2017-07-26T19:33:01.016Z,11.37
2017-07-26T19:35:27.241Z,9.83
2017-07-26T19:37:53.493Z,13.83
2017-07-26T19:40:19.858Z,10.10
2017-07-26T19:42:46.149Z,16.77
2017-07-26T19:45:12.391Z,12.40
2017-07-26T19:47:40.330Z,11.90
2017-07-26T19:50:07.329Z,12.57
2017-07-26T19:52:33.606Z,11.20
2017-07-26T19:55:00.603Z,11.50
2017-07-26T19:57:26.873Z,55.37
2017-07-26T19:59:53.123Z,106.00
2017-07-26T20:02:19.409Z,73.77
2017-07-26T20:04:45.683Z,24.43
2017-07-26T20:07:11.953Z,12.60
2017-07-26T20:09:45.351Z,21.80
2017-07-26T20:12:11.603Z,17.67
2017-07-26T20:14:37.847Z,14.13
2017-07-26T20:17:04.118Z,14.47
2017-07-26T20:19:30.493Z,14.33
2017-07-26T20:21:56.731Z,14.23
2017-07-26T20:24:23.876Z,15.83
2017-07-26T20:26:50.876Z,11.10
2017-07-26T20:29:17.126Z,11.40
2017-07-26T20:31:44.150Z,12.87
2017-07-26T20:34:10.402Z,12.13
2017-07-26T20:36:36.633Z,11.30
2017-07-26T20:39:02.883Z,13.63
2017-07-26T20:41:29.122Z,10.93
2017-07-26T20:43:55.372Z,12.37
2017-07-26T20:46:22.477Z,18.23
2017-07-26T20:48:48.774Z,11.03
2017-07-26T20:51:15.763Z,14.13
2017-07-26T20:53:42.094Z,10.87
2017-07-26T20:56:08.337Z,12.77
2017-07-26T20:58:34.577Z,10.50
2017-07-26T21:01:00.833Z,12.97
2017-07-26T21:03:27.074Z,12.63
2017-07-26T21:05:53.341Z,9.77
2017-07-26T21:08:20.337Z,9.80
2017-07-26T21:10:46.606Z,10.33
2017-07-26T21:13:13.587Z,10.97
2017-07-26T21:15:39.890Z,10.00
2017-07-26T21:18:06.118Z,12.13
2017-07-26T21:20:32.382Z,15.30
2017-07-26T21:22:58.676Z,11.47
2017-07-26T21:25:26.561Z,62.70
2017-07-26T21:27:52.811Z,40.63
2017-07-26T21:30:19.099Z,45.87
2017-07-26T21:32:45.426Z,41.97
2017-07-26T21:35:11.738Z,19.47
2017-07-26T21:37:39.518Z,13.80
2017-07-26T21:40:05.755Z,11.37
2017-07-26T21:42:31.986Z,11.67
2017-07-26T21:44:58.260Z,11.63
2017-07-26T21:47:24.541Z,11.30
2017-07-26T21:49:50.859Z,13.23
2017-07-26T21:52:17.103Z,13.27
2017-07-26T21:54:44.111Z,11.90
2017-07-26T21:57:10.399Z,14.83
2017-07-26T21:59:37.880Z,13.20
2017-07-26T22:02:04.208Z,11.30
2017-07-26T22:04:30.465Z,11.43
2017-07-26T22:06:56.732Z,18.93
2017-07-26T22:09:23.022Z,11.77
2017-07-26T22:11:49.267Z,13.93
2017-07-26T22:14:15.514Z,12.77
2017-07-26T22:16:41.755Z,14.20
2017-07-26T22:19:08.774Z,13.03
2017-07-26T22:21:35.823Z,11.23
2017-07-26T22:24:02.075Z,11.70
2017-07-26T22:26:29.326Z,14.37
2017-07-26T22:28:55.577Z,16.13
2017-07-26T22:31:21.855Z,13.37
2017-07-26T22:33:48.875Z,18.13
2017-07-26T22:36:15.191Z,16.67
2017-07-26T22:38:41.457Z,13.37
2017-07-26T22:41:07.703Z,15.50
2017-07-26T22:43:34.003Z,13.63
2017-07-26T22:46:00.305Z,15.90
2017-07-26T22:48:27.292Z,15.77
2017-07-26T22:50:53.542Z,15.80
2017-07-26T22:53:19.810Z,41.37
2017-07-26T22:55:46.075Z,112.67
2017-07-26T22:58:12.321Z,77.67
2017-07-26T23:00:38.554Z,46.03
2017-07-26T23:03:04.843Z,43.93
2017-07-26T23:05:31.939Z,23.77
2017-07-26T23:07:58.182Z,20.50
2017-07-26T23:10:24.423Z,20.97
2017-07-26T23:12:50.805Z,16.60
2017-07-26T23:15:17.835Z,14.00
2017-07-26T23:17:44.077Z,17.83
2017-07-26T23:20:10.330Z,14.13
2017-07-26T23:22:36.562Z,13.33
2017-07-26T23:25:02.791Z,14.00
2017-07-26T23:27:30.015Z,11.80
2017-07-26T23:29:56.250Z,16.90
2017-07-26T23:32:22.510Z,13.70
2017-07-26T23:34:48.807Z,16.80
2017-07-26T23:37:15.051Z,22.67
2017-07-26T23:39:41.332Z,20.97
2017-07-26T23:42:07.585Z,15.40
2017-07-26T23:44:34.571Z,19.17
2017-07-26T23:47:01.619Z,13.80
2017-07-26T23:49:28.657Z,13.80
2017-07-26T23:51:55.611Z,15.77
2017-07-26T23:54:22.612Z,16.17
2017-07-26T23:56:48.934Z,14.37
